Time;durP1;ratioP1;P1;durP2;ratioP2;P2;SDS_P1;SDS_P2;PMS_P1;PMS_P2;Temp;Humidity;BMP_temperature;BMP_pressure;BME280_temperature;BME280_humidity;BME280_pressure;Samples;Min_cycle;Max_cycle;Signal;HPM_P1;HPM_P2
2022/05/18 00:01:07;;;;;;;;;;;;;;;21.01;71.10;100568.19;7408700;19;1446;-64
2022/05/18 00:03:38;;;;;;;;;;;;;;;20.99;71.54;100546.84;7409385;19;1479;-63
2022/05/18 00:06:07;;;;;;;;;;;;;;;20.99;71.49;100544.16;7410973;19;1002;-64
2022/05/18 00:08:38;;;;;;;;;;;;;;;21.00;71.47;100545.81;7408447;19;1671;-67
2022/05/18 00:11:09;;;;;;;;;;;;;;;20.96;71.33;100549.81;7409772;19;1556;-65
2022/05/18 00:13:37;;;;;;;;;;;;;;;20.97;71.31;100542.59;7409151;19;1593;-64
2022/05/18 00:16:06;;;;;;;;;;;;;;;20.93;71.53;100542.09;7406089;19;1855;-64
2022/05/18 00:18:34;;;;;;;;;;;;;;;20.97;71.55;100548.84;7408472;19;1537;-64
2022/05/18 00:21:03;;;;;;;;;;;;;;;20.97;71.44;100530.03;7409608;19;1517;-67
2022/05/18 00:23:32;;;;;;;;;;;;;;;20.98;71.29;100537.06;7408489;19;1383;-64
2022/05/18 00:26:03;;;;;;;;;;;;;;;20.96;71.43;100533.69;7407833;19;1604;-64
2022/05/18 00:28:32;;;;;;;;;;;;;;;20.97;71.55;100534.53;7408114;19;1424;-64
2022/05/18 00:31:01;;;;;;;;;;;;;;;21.00;71.23;100540.44;7409084;19;1306;-67
2022/05/18 00:33:30;;;;;;;;;;;;;;;20.99;71.46;100535.22;7406350;19;1707;-67
2022/05/18 00:35:58;;;;;;;;;;;;;;;21.02;71.50;100533.06;7406553;19;1842;-64
2022/05/18 00:38:27;;;;;;;;;;;;;;;20.98;71.43;100534.38;7407693;19;1349;-64
2022/05/18 00:40:56;;;;;;;;;;;;;;;20.95;71.60;100529.34;7408144;19;1894;-67
2022/05/18 00:43:40;;;;;;;;;;;;;;;20.98;71.21;100537.06;7407087;19;1612;-65
2022/05/18 00:46:10;;;;;;;;;;;;;;;20.93;71.37;100525.94;7407500;19;1569;-64
2022/05/18 00:48:40;;;;;;;;;;;;;;;20.97;71.38;100543.47;7407618;19;1537;-65
2022/05/18 00:51:11;;;;;;;;;;;;;;;20.95;71.25;100532.03;7405991;19;1397;-65
2022/05/18 00:53:41;;;;;;;;;;;;;;;20.95;71.32;100526.66;7405714;19;1599;-64
2022/05/18 00:56:11;;;;;;;;;;;;;;;20.95;71.18;100523.97;7405822;19;1840;-64
2022/05/18 00:58:44;;;;;;;;;;;;;;;20.93;71.13;100531.31;7406920;19;1525;-64
2022/05/18 01:01:12;;;;;;;;;;;;;;;20.94;71.41;100527.63;7407346;19;1465;-67
2022/05/18 01:03:43;;;;;;;;;;;;;;;20.91;71.00;100517.19;7407144;19;1608;-64
2022/05/18 01:06:15;;;;;;;;;;;;;;;20.94;71.06;100514.19;7408741;19;1278;-67
2022/05/18 01:08:45;;;;;;;;;;;;;;;20.93;71.25;100506.28;7407250;19;1690;-63
2022/05/18 01:11:13;;;;;;;;;;;;;;;20.94;71.11;100495.38;7406662;19;1596;-67
2022/05/18 01:13:45;;;;;;;;;;;;;;;20.93;71.09;100512.50;7405050;19;1545;-67
2022/05/18 01:16:13;;;;;;;;;;;;;;;20.91;71.24;100490.31;7405454;19;1851;-64
2022/05/18 01:18:41;;;;;;;;;;;;;;;20.92;70.96;100491.16;7407345;19;1697;-67
2022/05/18 01:21:10;;;;;;;;;;;;;;;20.93;71.29;100479.38;7406976;19;1597;-67
2022/05/18 01:23:45;;;;;;;;;;;;;;;20.90;71.04;100480.56;7406730;19;1309;-65
2022/05/18 01:26:17;;;;;;;;;;;;;;;20.94;71.06;100487.31;7406862;19;1575;-67
2022/05/18 01:28:49;;;;;;;;;;;;;;;20.92;71.08;100478.56;7406922;19;1333;-64
2022/05/18 01:31:18;;;;;;;;;;;;;;;20.93;71.12;100485.63;7405942;19;1306;-67
2022/05/18 01:33:47;;;;;;;;;;;;;;;20.90;71.00;100472.50;7405625;19;1676;-66
2022/05/18 01:36:15;;;;;;;;;;;;;;;20.93;71.28;100484.75;7406062;19;1906;-67
2022/05/18 01:38:44;;;;;;;;;;;;;;;20.93;71.16;100485.63;7404591;19;1558;-67
2022/05/18 01:41:16;;;;;;;;;;;;;;;20.95;70.96;100475.56;7406826;19;1524;-67
2022/05/18 01:43:46;;;;;;;;;;;;;;;20.93;70.78;100474.88;7406036;19;1680;-65
2022/05/18 01:46:18;;;;;;;;;;;;;;;20.92;71.18;100459.75;7404693;19;1623;-64
2022/05/18 01:48:48;;;;;;;;;;;;;;;20.88;71.09;100444.94;7405582;19;1518;-67
2022/05/18 01:51:20;;;;;;;;;;;;;;;20.90;71.05;100461.75;7403933;19;1568;-64
2022/05/18 01:53:49;;;;;;;;;;;;;;;20.90;71.04;100472.50;7404719;19;1580;-64
2022/05/18 01:56:17;;;;;;;;;;;;;;;20.91;71.08;100473.31;7404766;19;1858;-64
2022/05/18 01:58:46;;;;;;;;;;;;;;;20.92;70.84;100466.97;7405419;19;1380;-67
2022/05/18 02:01:16;;;;;;;;;;;;;;;20.90;70.98;100459.06;7397410;19;1651;-65
2022/05/18 02:03:45;;;;;;;;;;;;;;;20.92;70.72;100462.44;7404989;19;1336;-64
2022/05/18 02:06:13;;;;;;;;;;;;;;;20.90;70.98;100458.22;7406152;19;1325;-64
2022/05/18 02:08:42;;;;;;;;;;;;;;;20.90;70.90;100451.00;7404677;19;1667;-62
2022/05/18 02:11:13;;;;;;;;;;;;;;;20.94;70.96;100468.50;7406122;19;1595;-67
2022/05/18 02:13:41;;;;;;;;;;;;;;;20.91;70.67;100454.50;7404414;19;1520;-67
2022/05/18 02:16:10;;;;;;;;;;;;;;;20.91;70.86;100465.25;7402919;19;1861;-67
2022/05/18 02:18:41;;;;;;;;;;;;;;;20.88;70.89;100454.84;7404417;19;1485;-65
2022/05/18 02:21:10;;;;;;;;;;;;;;;20.87;71.04;100462.06;7404078;19;1587;-67
2022/05/18 02:23:39;;;;;;;;;;;;;;;20.92;70.68;100445.47;7404167;19;1517;-65
2022/05/18 02:26:08;;;;;;;;;;;;;;;20.98;70.76;100442.16;7403913;19;1337;-68
2022/05/18 02:28:36;;;;;;;;;;;;;;;20.95;70.98;100429.00;7404058;19;1976;-64
2022/05/18 02:31:05;;;;;;;;;;;;;;;20.94;70.11;100436.22;7405771;19;1545;-65
2022/05/18 02:33:33;;;;;;;;;;;;;;;20.94;70.63;100433.53;7404590;19;1536;-66
2022/05/18 02:36:06;;;;;;;;;;;;;;;20.96;70.87;100436.09;7403532;19;1866;-67
2022/05/18 02:38:35;;;;;;;;;;;;;;;20.94;70.66;100428.16;7403712;19;1569;-64
2022/05/18 02:41:03;;;;;;;;;;;;;;;20.95;70.43;100432.56;7405047;19;1494;-65
2022/05/18 02:43:32;;;;;;;;;;;;;;;20.98;70.65;100429.53;7403411;19;1533;-65
2022/05/18 02:46:04;;;;;;;;;;;;;;;20.94;70.56;100427.34;7404133;19;1573;-65
2022/05/18 02:48:32;;;;;;;;;;;;;;;20.94;70.54;100419.28;7404195;19;1608;-66
2022/05/18 02:51:00;;;;;;;;;;;;;;;20.96;70.56;100436.91;7404403;19;1631;-64
2022/05/18 02:53:31;;;;;;;;;;;;;;;20.96;70.44;100436.09;7403647;19;1525;-67
2022/05/18 02:56:06;;;;;;;;;;;;;;;20.93;70.27;100439.06;7402876;19;1860;-64
2022/05/18 02:58:35;;;;;;;;;;;;;;;20.93;70.24;100431.00;7403448;19;1302;-65
2022/05/18 03:01:03;;;;;;;;;;;;;;;20.94;70.53;100438.91;7403354;19;1551;-64
2022/05/18 03:03:32;;;;;;;;;;;;;;;20.92;70.32;100430.16;7402880;19;1256;-64
2022/05/18 03:06:00;;;;;;;;;;;;;;;20.96;70.31;100444.16;7411449;19;1123;-67
2022/05/18 03:08:28;;;;;;;;;;;;;;;20.98;70.30;100445.66;7410251;19;1675;-64
2022/05/18 03:11:00;;;;;;;;;;;;;;;20.93;70.40;100448.00;7409709;19;1414;-67
2022/05/18 03:13:28;;;;;;;;;;;;;;;20.93;70.47;100453.38;7409923;19;1309;-65
2022/05/18 03:15:56;;;;;;;;;;;;;;;20.97;70.29;100462.81;7407592;19;1872;-67
2022/05/18 03:18:26;;;;;;;;;;;;;;;20.91;70.22;100439.25;7409481;19;1378;-66
2022/05/18 03:23:37;;;;;;;;;;;;;;;20.93;70.38;100449.81;7408771;19;1176;-65
2022/05/18 03:26:09;;;;;;;;;;;;;;;20.91;70.44;100449.13;7409703;19;1478;-64
2022/05/18 03:28:38;;;;;;;;;;;;;;;20.90;70.47;100448.31;7409178;19;1358;-66
2022/05/18 03:31:07;;;;;;;;;;;;;;;20.91;70.36;100454.50;7408856;19;1342;-64
2022/05/18 03:33:35;;;;;;;;;;;;;;;20.95;70.50;100454.06;7410255;19;1520;-65
2022/05/18 03:36:04;;;;;;;;;;;;;;;20.97;70.80;100481.63;7409917;19;1849;-67
2022/05/18 03:38:32;;;;;;;;;;;;;;;20.95;70.27;100461.25;7409820;19;1532;-65
2022/05/18 03:41:00;;;;;;;;;;;;;;;20.92;70.20;100462.44;7410184;19;1372;-67
2022/05/18 03:43:31;;;;;;;;;;;;;;;20.89;70.63;100468.13;7408893;19;1359;-65
2022/05/18 03:46:01;;;;;;;;;;;;;;;20.90;70.34;100510.13;7410323;19;1520;-66
2022/05/18 03:48:29;;;;;;;;;;;;;;;20.68;70.51;100534.78;7409127;19;1346;-65
2022/05/18 03:50:58;;;;;;;;;;;;;;;20.43;69.94;100529.09;7409857;19;1365;-65
2022/05/18 03:53:28;;;;;;;;;;;;;;;20.31;69.56;100519.53;7407955;19;1631;-67
2022/05/18 03:55:56;;;;;;;;;;;;;;;20.14;69.25;100499.72;7407028;19;1856;-66
2022/05/18 03:58:25;;;;;;;;;;;;;;;20.07;68.63;100534.34;7408138;19;1269;-65
2022/05/18 04:01:01;;;;;;;;;;;;;;;19.92;67.24;100554.66;7406293;19;1491;-66
2022/05/18 04:03:31;;;;;;;;;;;;;;;19.82;67.40;100586.88;7408403;19;1409;-66
2022/05/18 04:05:59;;;;;;;;;;;;;;;19.77;66.67;100605.22;7409790;19;1105;-66
2022/05/18 04:08:28;;;;;;;;;;;;;;;19.65;66.72;100594.63;7408124;19;1302;-66
2022/05/18 04:10:57;;;;;;;;;;;;;;;19.61;66.44;100595.06;7408992;19;1436;-65
2022/05/18 04:13:26;;;;;;;;;;;;;;;19.56;66.33;100610.75;7408702;19;1355;-66
2022/05/18 04:15:57;;;;;;;;;;;;;;;19.50;65.89;100598.75;7407334;19;1854;-64
2022/05/18 04:18:26;;;;;;;;;;;;;;;19.47;65.97;100609.75;7405423;19;1258;-63
2022/05/18 04:20:55;;;;;;;;;;;;;;;19.61;65.85;100619.19;7404344;19;1482;-67
2022/05/18 04:23:24;;;;;;;;;;;;;;;19.66;65.83;100619.63;7403784;19;1364;-67
2022/05/18 04:25:53;;;;;;;;;;;;;;;19.74;66.21;100627.84;7408113;19;1595;-66
2022/05/18 04:28:22;;;;;;;;;;;;;;;19.70;65.55;100631.75;7408319;19;1287;-66
2022/05/18 04:30:51;;;;;;;;;;;;;;;19.62;65.34;100639.69;7401591;19;1104;-66
2022/05/18 04:33:23;;;;;;;;;;;;;;;19.54;65.87;100628.81;7408546;19;1618;-66
2022/05/18 04:35:51;;;;;;;;;;;;;;;19.51;65.69;100634.47;7408052;19;1850;-66
2022/05/18 04:38:21;;;;;;;;;;;;;;;19.55;65.46;100617.09;7407922;19;1311;-65
2022/05/18 04:40:49;;;;;;;;;;;;;;;19.57;65.33;100625.84;7408339;19;1539;-65
2022/05/18 04:43:20;;;;;;;;;;;;;;;19.46;64.96;100629.53;7407697;19;1604;-66
2022/05/18 04:45:51;;;;;;;;;;;;;;;19.54;65.13;100612.75;7408755;19;1532;-66
2022/05/18 04:48:24;;;;;;;;;;;;;;;19.55;65.31;100628.66;7408284;19;1299;-66
2022/05/18 04:50:53;;;;;;;;;;;;;;;19.55;64.74;100627.81;7408240;19;1710;-65
2022/05/18 04:53:22;;;;;;;;;;;;;;;19.55;65.12;100619.78;7407064;19;1357;-65
2022/05/18 04:55:51;;;;;;;;;;;;;;;19.55;64.49;100606.38;7407122;19;1858;-65
2022/05/18 04:58:19;;;;;;;;;;;;;;;19.44;64.27;100621.63;7407980;19;1258;-66
2022/05/18 05:00:50;;;;;;;;;;;;;;;19.45;64.38;100634.03;7406913;19;1501;-66
2022/05/18 05:03:21;;;;;;;;;;;;;;;19.52;64.20;100642.38;7406818;19;1235;-65
2022/05/18 05:05:50;;;;;;;;;;;;;;;19.44;64.08;100652.97;7408052;19;1684;-65
2022/05/18 05:08:18;;;;;;;;;;;;;;;19.45;64.14;100655.47;7406265;19;1492;-65
2022/05/18 05:10:46;;;;;;;;;;;;;;;19.52;64.19;100698.69;7405247;19;1532;-62
2022/05/18 05:13:15;;;;;;;;;;;;;;;19.98;63.99;100693.63;7408173;19;1467;-66
2022/05/18 05:15:44;;;;;;;;;;;;;;;20.12;63.54;100685.13;7407065;19;1866;-64
2022/05/18 05:18:13;;;;;;;;;;;;;;;20.22;63.24;100703.88;7406388;19;1501;-64
2022/05/18 05:20:43;;;;;;;;;;;;;;;20.35;63.60;100696.38;7406075;19;1576;-66
2022/05/18 05:23:12;;;;;;;;;;;;;;;20.43;64.09;100692.91;7404565;19;1373;-66
2022/05/18 05:25:40;;;;;;;;;;;;;;;20.50;63.72;100704.78;7403732;19;1379;-64
2022/05/18 05:28:09;;;;;;;;;;;;;;;20.45;63.91;100707.06;7404945;19;1274;-66
2022/05/18 05:30:40;;;;;;;;;;;;;;;20.35;64.37;100716.97;7406356;19;1254;-67
2022/05/18 05:33:08;;;;;;;;;;;;;;;20.39;64.17;100716.56;7406471;19;1546;-68
2022/05/18 05:35:36;;;;;;;;;;;;;;;20.38;63.53;100738.19;7405807;19;1464;-69
2022/05/18 05:38:08;;;;;;;;;;;;;;;20.41;64.08;100735.19;7402439;19;1855;-75
2022/05/18 05:40:37;;;;;;;;;;;;;;;20.54;63.96;100735.72;7407262;19;1536;-67
2022/05/18 05:43:07;;;;;;;;;;;;;;;20.54;63.82;100764.44;7403738;19;1321;-66
2022/05/18 05:45:36;;;;;;;;;;;;;;;20.48;63.99;100787.34;7405955;19;1523;-65
2022/05/18 05:48:05;;;;;;;;;;;;;;;20.44;63.64;100764.47;7406164;19;1641;-67
2022/05/18 05:50:33;;;;;;;;;;;;;;;20.34;63.68;100796.72;7405337;19;1546;-68
2022/05/18 05:53:02;;;;;;;;;;;;;;;20.31;64.11;100801.53;7406915;19;1385;-75
2022/05/18 05:55:33;;;;;;;;;;;;;;;20.38;63.68;100821.44;7405289;19;1374;-71
2022/05/18 05:58:01;;;;;;;;;;;;;;;20.44;63.50;100834.31;7404102;19;1846;-66
2022/05/18 06:00:30;;;;;;;;;;;;;;;20.41;63.86;100824.69;7404664;19;1660;-69
2022/05/18 06:02:58;;;;;;;;;;;;;;;20.57;64.12;100821.44;7402352;19;1452;-69
2022/05/18 06:05:28;;;;;;;;;;;;;;;20.61;64.30;100835.44;7405747;19;1352;-66
2022/05/18 06:07:56;;;;;;;;;;;;;;;20.65;64.25;100845.75;7406350;19;1302;-68
2022/05/18 06:10:25;;;;;;;;;;;;;;;20.71;64.49;100855.09;7407550;19;1126;-74
2022/05/18 06:12:56;;;;;;;;;;;;;;;20.68;64.57;100857.22;7406059;19;1309;-72
2022/05/18 06:15:25;;;;;;;;;;;;;;;20.62;64.90;100870.22;7406273;19;1290;-72
2022/05/18 06:17:53;;;;;;;;;;;;;;;20.72;64.73;100875.59;7401691;19;1852;-71
2022/05/18 06:20:22;;;;;;;;;;;;;;;20.74;64.71;100888.88;7404255;19;1412;-63
2022/05/18 06:22:51;;;;;;;;;;;;;;;20.76;65.48;100909.25;7404204;19;1306;-62
2022/05/18 06:25:19;;;;;;;;;;;;;;;20.73;64.90;100897.91;7404533;19;1233;-64
2022/05/18 06:27:48;;;;;;;;;;;;;;;20.71;64.75;100905.28;7403157;19;1769;-65
2022/05/18 06:30:19;;;;;;;;;;;;;;;20.71;65.81;100922.28;7404044;19;1484;-60
2022/05/18 06:32:47;;;;;;;;;;;;;;;20.81;65.61;100922.22;7403706;19;1481;-67
2022/05/18 06:35:15;;;;;;;;;;;;;;;20.66;64.98;100924.53;7402155;19;1375;-68
2022/05/18 06:37:44;;;;;;;;;;;;;;;20.61;64.17;100927.66;7404124;19;1857;-66
2022/05/18 06:40:13;;;;;;;;;;;;;;;20.53;64.39;100927.47;7408114;19;1695;-67
2022/05/18 06:42:41;;;;;;;;;;;;;;;20.50;64.50;100921.53;7407980;19;1656;-67
2022/05/18 06:45:10;;;;;;;;;;;;;;;20.45;64.51;100938.94;7407803;19;1522;-67
2022/05/18 06:47:43;;;;;;;;;;;;;;;20.44;64.54;100934.53;7408808;19;1577;-68
2022/05/18 06:50:12;;;;;;;;;;;;;;;20.45;64.38;100938.94;7411734;19;1444;-66
2022/05/18 06:52:40;;;;;;;;;;;;;;;20.47;64.41;100949.50;7412662;19;1600;-68
2022/05/18 06:55:11;;;;;;;;;;;;;;;20.44;64.18;100953.34;7411603;19;1770;-67
2022/05/18 06:57:41;;;;;;;;;;;;;;;20.44;63.99;100957.88;7407947;19;1850;-66
2022/05/18 07:00:10;;;;;;;;;;;;;;;20.45;63.89;100959.56;7407109;19;1596;-67
2022/05/18 07:02:39;;;;;;;;;;;;;;;20.45;63.90;100951.50;7408063;19;1420;-67
2022/05/18 07:05:10;;;;;;;;;;;;;;;20.44;63.83;100968.63;7411966;19;1607;-67
2022/05/18 07:07:39;;;;;;;;;;;;;;;20.40;63.88;100957.28;7412058;19;1345;-66
2022/05/18 07:10:09;;;;;;;;;;;;;;;20.46;64.09;100975.53;7407937;19;1500;-65
2022/05/18 07:12:37;;;;;;;;;;;;;;;20.45;63.74;100976.53;7407910;19;1500;-65
2022/05/18 07:15:06;;;;;;;;;;;;;;;20.47;64.18;101000.56;7410804;19;1684;-65
2022/05/18 07:17:35;;;;;;;;;;;;;;;20.44;63.96;101007.06;7408640;19;1857;-65
2022/05/18 07:20:03;;;;;;;;;;;;;;;20.45;64.11;101021.34;7407027;19;1424;-64
2022/05/18 07:22:34;;;;;;;;;;;;;;;20.47;63.86;101011.28;7411850;19;1627;-65
2022/05/18 07:25:03;;;;;;;;;;;;;;;20.44;63.92;101033.09;7410873;19;1664;-67
2022/05/18 07:27:32;;;;;;;;;;;;;;;20.44;64.16;101027.72;7411643;19;1493;-65
2022/05/18 07:30:02;;;;;;;;;;;;;;;20.46;63.84;101040.00;7411768;19;1267;-66
2022/05/18 07:32:31;;;;;;;;;;;;;;;20.44;63.85;101035.75;7409606;19;1484;-67
2022/05/18 07:34:59;;;;;;;;;;;;;;;20.46;63.87;101047.22;7411138;19;1623;-65
2022/05/18 07:37:29;;;;;;;;;;;;;;;20.46;63.96;101066.03;7407332;19;1852;-64
2022/05/18 07:39:59;;;;;;;;;;;;;;;20.46;64.23;101052.59;7408206;19;1470;-65
2022/05/18 07:42:28;;;;;;;;;;;;;;;20.46;64.02;101074.94;7410791;19;1515;-66
2022/05/18 07:44:56;;;;;;;;;;;;;;;20.45;63.77;101067.00;7408617;19;1801;-64
2022/05/18 07:47:30;;;;;;;;;;;;;;;20.45;63.81;101072.38;7409784;19;1428;-66
2022/05/18 07:49:58;;;;;;;;;;;;;;;20.45;63.76;101091.19;7406209;19;1337;-66
2022/05/18 07:52:28;;;;;;;;;;;;;;;20.46;63.79;101090.19;7409069;19;1448;-67
2022/05/18 07:54:56;;;;;;;;;;;;;;;20.45;63.73;101100.09;7410437;19;1544;-67
2022/05/18 07:57:27;;;;;;;;;;;;;;;20.46;63.92;101088.34;7407254;19;1854;-65
2022/05/18 08:00:00;;;;;;;;;;;;;;;20.48;63.79;101116.94;7409765;19;1408;-66
2022/05/18 08:02:29;;;;;;;;;;;;;;;20.46;63.53;101106.31;7407353;19;1706;-66
2022/05/18 08:04:58;;;;;;;;;;;;;;;20.44;63.62;101116.34;7410583;19;1509;-65
2022/05/18 08:07:26;;;;;;;;;;;;;;;20.45;63.82;101118.91;7408934;19;1594;-66
2022/05/18 08:15:19;;;;;;;;;;;;;;;20.50;63.91;101133.78;7409454;19;1292;-66
2022/05/18 08:17:48;;;;;;;;;;;;;;;20.51;63.76;101135.44;7405855;19;1853;-67
2022/05/18 08:20:18;;;;;;;;;;;;;;;20.49;62.71;101118.63;7407426;19;1794;-67
2022/05/18 08:22:46;;;;;;;;;;;;;;;20.51;62.98;101130.06;7408927;19;1297;-66
2022/05/18 08:25:15;;;;;;;;;;;;;;;20.49;62.91;101132.91;7408676;19;1385;-66
2022/05/18 08:27:47;;;;;;;;;;;;;;;20.52;62.89;101169.41;7408421;19;1361;-66
2022/05/18 08:30:17;;;;;;;;;;;;;;;20.51;62.85;101152.41;7406667;19;1463;-67
2022/05/18 08:32:46;;;;;;;;;;;;;;;20.52;62.66;101164.03;7407652;19;1668;-67
2022/05/18 08:35:16;;;;;;;;;;;;;;;20.53;62.79;101169.28;7406015;19;1607;-67
2022/05/18 08:37:46;;;;;;;;;;;;;;;20.52;63.11;101164.88;7408499;19;1870;-67
2022/05/18 08:40:17;;;;;;;;;;;;;;;20.51;62.91;101173.06;7409110;19;1375;-63
2022/05/18 08:42:48;;;;;;;;;;;;;;;20.53;63.65;101182.72;7408792;19;1626;-67
2022/05/18 08:45:18;;;;;;;;;;;;;;;20.54;64.10;101179.03;7407817;19;1475;-65
2022/05/18 08:47:52;;;;;;;;;;;;;;;20.59;64.75;101184.88;7401536;19;1554;-67
2022/05/18 08:50:22;;;;;;;;;;;;;;;20.57;64.68;101192.19;7402802;19;1219;-69
2022/05/18 08:53:08;;;;;;;;;;;;;;;20.58;65.81;101184.97;7401548;19;1424;-68
2022/05/18 08:55:54;;;;;;;;;;;;;;;20.70;65.77;101183.06;7403618;19;1600;-68
2022/05/18 08:58:38;;;;;;;;;;;;;;;20.66;66.26;101190.56;7400847;19;1853;-68
2022/05/18 09:01:08;;;;;;;;;;;;;;;20.66;66.38;101171.75;7400569;19;1609;-67
2022/05/18 09:03:38;;;;;;;;;;;;;;;20.62;66.87;101187.28;7403241;19;1349;-67
2022/05/18 09:06:09;;;;;;;;;;;;;;;20.63;67.26;101194.38;7401936;19;1348;-67
2022/05/18 09:08:39;;;;;;;;;;;;;;;20.64;67.01;101200.59;7402785;19;1427;-69
2022/05/18 09:11:09;;;;;;;;;;;;;;;20.67;67.07;101184.19;7402212;19;1286;-69
2022/05/18 09:13:40;;;;;;;;;;;;;;;20.65;66.75;101192.41;7402834;19;1620;-67
2022/05/18 09:16:13;;;;;;;;;;;;;;;20.64;67.07;101174.56;7400897;19;1208;-67
2022/05/18 09:18:44;;;;;;;;;;;;;;;20.65;67.24;101197.78;7400760;19;1857;-67
2022/05/18 09:21:20;;;;;;;;;;;;;;;20.67;66.92;101211.06;7403662;19;1631;-67
2022/05/18 09:23:58;;;;;;;;;;;;;;;20.68;67.01;101212.78;7401864;19;1755;-67
2022/05/18 09:26:40;;;;;;;;;;;;;;;20.71;67.22;101233.13;7401663;19;1524;-67
2022/05/18 09:29:16;;;;;;;;;;;;;;;20.68;67.01;101244.19;7402556;19;1584;-66
2022/05/18 09:31:58;;;;;;;;;;;;;;;20.62;67.58;101229.44;7401690;19;1377;-67
2022/05/18 09:34:36;;;;;;;;;;;;;;;20.63;67.03;101221.25;7400646;19;1196;-67
2022/05/18 09:37:16;;;;;;;;;;;;;;;20.67;67.17;101237.94;7402677;19;1863;-66
2022/05/18 09:39:47;;;;;;;;;;;;;;;20.65;67.38;101258.72;7403144;19;1412;-69
2022/05/18 09:42:17;;;;;;;;;;;;;;;20.65;67.07;101250.66;7401949;19;1302;-64
2022/05/18 09:44:51;;;;;;;;;;;;;;;20.64;67.47;101251.66;7400996;19;1715;-67
2022/05/18 09:47:21;;;;;;;;;;;;;;;20.63;67.21;101258.88;7399829;19;1523;-67
2022/05/18 09:49:52;;;;;;;;;;;;;;;20.65;67.27;101258.72;7401487;19;1576;-67
2022/05/18 09:52:24;;;;;;;;;;;;;;;20.66;67.26;101272.03;7399429;19;1415;-67
2022/05/18 09:54:53;;;;;;;;;;;;;;;20.66;67.38;101263.13;7399978;19;1615;-67
2022/05/18 09:57:24;;;;;;;;;;;;;;;20.64;67.55;101271.31;7400512;19;1871;-68
2022/05/18 09:59:58;;;;;;;;;;;;;;;20.68;67.14;101271.06;7399243;19;1389;-67
2022/05/18 10:07:52;;;;;;;;;;;;;;;20.74;67.39;101297.38;7400330;19;1591;-67
2022/05/18 10:10:24;;;;;;;;;;;;;;;20.79;67.17;101296.00;7400948;19;1538;-66
2022/05/18 10:13:03;;;;;;;;;;;;;;;20.75;67.01;101305.31;7399898;19;1707;-65
2022/05/18 10:15:38;;;;;;;;;;;;;;;20.83;66.88;101308.19;7399723;19;1699;-68
2022/05/18 10:18:18;;;;;;;;;;;;;;;20.80;66.98;101329.09;7399275;19;1878;-61
2022/05/18 10:21:02;;;;;;;;;;;;;;;21.00;66.94;101309.38;7398455;19;2143;-70
2022/05/18 10:23:36;;;;;;;;;;;;;;;20.94;66.92;101309.06;7399310;19;1447;-61
2022/05/18 10:26:05;;;;;;;;;;;;;;;20.93;67.05;101312.72;7399468;19;1556;-66
2022/05/18 10:28:33;;;;;;;;;;;;;;;20.88;66.89;101317.69;7398715;19;1254;-71
2022/05/18 10:31:05;;;;;;;;;;;;;;;20.87;67.38;101311.47;7401835;19;1361;-69
2022/05/18 10:33:35;;;;;;;;;;;;;;;20.82;67.43;101319.06;7399967;19;1488;-72
2022/05/18 10:36:14;;;;;;;;;;;;;;;20.86;67.48;101315.13;7402587;19;1477;-68
2022/05/18 10:38:51;;;;;;;;;;;;;;;20.84;67.28;101330.53;7397496;19;1853;-65
2022/05/18 10:41:21;;;;;;;;;;;;;;;20.85;67.57;101329.56;7403439;19;1490;-64
2022/05/18 10:44:01;;;;;;;;;;;;;;;20.90;67.00;101343.44;7402178;19;1521;-64
2022/05/18 10:46:42;;;;;;;;;;;;;;;20.96;66.92;101337.53;7404485;19;1575;-63
2022/05/18 10:49:15;;;;;;;;;;;;;;;20.91;66.95;101329.03;7403406;19;1691;-68
2022/05/18 10:51:45;;;;;;;;;;;;;;;20.88;64.84;101329.28;7403462;19;1490;-67
2022/05/18 10:54:18;;;;;;;;;;;;;;;20.85;65.29;101337.63;7402101;19;1733;-64
2022/05/18 10:56:47;;;;;;;;;;;;;;;20.90;65.94;101335.38;7402695;19;1397;-71
2022/05/18 10:59:23;;;;;;;;;;;;;;;20.95;65.87;101326.91;7401901;19;1902;-68
2022/05/18 11:01:57;;;;;;;;;;;;;;;21.09;65.60;101344.50;7402617;19;1628;-70
2022/05/18 11:04:29;;;;;;;;;;;;;;;21.05;66.11;101352.84;7404717;19;1534;-71
2022/05/18 11:06:57;;;;;;;;;;;;;;;20.97;65.53;101336.56;7404146;19;1454;-72
2022/05/18 11:09:30;;;;;;;;;;;;;;;20.83;64.75;101342.25;7403176;19;1531;-72
2022/05/18 11:12:01;;;;;;;;;;;;;;;20.77;64.34;101345.47;7401327;19;1525;-73
2022/05/18 11:14:38;;;;;;;;;;;;;;;20.69;65.13;101342.59;7402314;19;1529;-72
2022/05/18 11:17:13;;;;;;;;;;;;;;;20.61;64.03;101362.94;7403325;19;1345;-71
2022/05/18 11:19:46;;;;;;;;;;;;;;;20.54;63.93;101361.72;7403487;19;1853;-74
2022/05/18 11:22:21;;;;;;;;;;;;;;;20.41;63.29;101367.31;7405744;19;1140;-71
2022/05/18 11:24:51;;;;;;;;;;;;;;;20.43;63.28;101378.78;7406097;19;1750;-72
2022/05/18 11:27:27;;;;;;;;;;;;;;;20.44;62.92;101368.88;7411459;19;1448;-70
2022/05/18 11:30:04;;;;;;;;;;;;;;;20.48;62.89;101388.28;7411034;19;1509;-74
2022/05/18 11:32:42;;;;;;;;;;;;;;;20.41;62.43;101370.00;7411690;19;1623;-69
2022/05/18 11:35:23;;;;;;;;;;;;;;;20.42;62.29;101368.16;7408675;19;1568;-68
2022/05/18 11:37:59;;;;;;;;;;;;;;;20.37;62.16;101355.13;7411757;19;1843;-69
2022/05/18 11:40:34;;;;;;;;;;;;;;;20.43;61.94;101375.22;7410774;19;1372;-67
2022/05/18 11:43:25;;;;;;;;;;;;;;;20.39;61.12;101366.59;7412160;19;1545;-68
2022/05/18 11:45:58;;;;;;;;;;;;;;;20.42;60.95;101377.06;7410811;19;1260;-72
2022/05/18 11:48:33;;;;;;;;;;;;;;;20.42;61.01;101357.41;7409536;19;1517;-72
2022/05/18 11:51:05;;;;;;;;;;;;;;;20.42;61.00;101384.28;7412285;19;1624;-68
2022/05/18 11:53:42;;;;;;;;;;;;;;;20.46;60.70;101380.34;7410469;19;1620;-69
2022/05/18 11:56:18;;;;;;;;;;;;;;;20.46;60.33;101369.59;7411179;19;1536;-69
2022/05/18 11:59:07;;;;;;;;;;;;;;;20.43;60.40;101394.91;7410667;19;1848;-70
2022/05/18 12:01:39;;;;;;;;;;;;;;;20.39;60.24;101400.63;7409629;19;1527;-71
2022/05/18 12:04:18;;;;;;;;;;;;;;;20.41;60.08;101399.53;7408492;19;1569;-70
2022/05/18 12:07:01;;;;;;;;;;;;;;;20.42;59.83;101384.28;7410813;19;1650;-70
2022/05/18 12:09:44;;;;;;;;;;;;;;;20.37;59.11;101399.91;7410116;19;1357;-70
2022/05/18 12:12:18;;;;;;;;;;;;;;;20.37;59.03;101392.72;7410811;19;1598;-70
2022/05/18 12:14:52;;;;;;;;;;;;;;;20.36;59.19;101408.97;7410580;19;1537;-70
2022/05/18 12:17:24;;;;;;;;;;;;;;;20.34;58.85;101392.97;7407782;19;1466;-69
2022/05/18 12:19:59;;;;;;;;;;;;;;;20.34;58.33;101411.78;7407019;19;1849;-70
2022/05/18 12:22:30;;;;;;;;;;;;;;;20.30;58.79;101407.66;7410455;19;1540;-68
2022/05/18 12:24:58;;;;;;;;;;;;;;;20.36;57.74;101407.13;7409211;19;1678;-72
2022/05/18 12:27:28;;;;;;;;;;;;;;;20.37;57.81;101407.97;7409169;19;1683;-69
2022/05/18 12:29:58;;;;;;;;;;;;;;;20.35;57.90;101404.56;7409784;19;1674;-70
2022/05/18 12:32:27;;;;;;;;;;;;;;;20.32;58.27;101415.56;7409352;19;1502;-70
2022/05/18 12:35:06;;;;;;;;;;;;;;;20.36;57.37;101427.78;7409578;19;1615;-68
2022/05/18 12:37:35;;;;;;;;;;;;;;;20.39;57.52;101412.25;7409006;19;1651;-68
2022/05/18 12:40:10;;;;;;;;;;;;;;;20.41;57.54;101410.28;7406745;19;1869;-70
2022/05/18 12:42:51;;;;;;;;;;;;;;;20.48;58.43;101425.88;7408925;19;1663;-68
2022/05/18 12:45:31;;;;;;;;;;;;;;;20.47;57.81;101419.63;7405851;19;1496;-66
2022/05/18 12:48:08;;;;;;;;;;;;;;;20.44;57.87;101395.75;7406149;19;1554;-66
2022/05/18 12:50:45;;;;;;;;;;;;;;;20.50;57.37;101448.94;7407846;19;1632;-71
2022/05/18 12:53:16;;;;;;;;;;;;;;;20.42;57.05;101440.69;7409487;19;1509;-66
2022/05/18 12:55:46;;;;;;;;;;;;;;;20.46;57.81;101428.69;7409553;19;1434;-71
2022/05/18 12:58:28;;;;;;;;;;;;;;;20.48;57.99;101432.09;7408398;19;1862;-70
2022/05/18 13:01:01;;;;;;;;;;;;;;;20.45;57.98;101424.28;7406855;19;1522;-71
2022/05/18 13:03:43;;;;;;;;;;;;;;;20.46;57.64;101429.53;7409397;19;1600;-70
2022/05/18 13:06:20;;;;;;;;;;;;;;;20.52;57.43;101438.94;7408657;19;1592;-65
2022/05/18 13:09:09;;;;;;;;;;;;;;;20.49;56.88;101422.22;7408268;19;1525;-70
2022/05/18 13:11:50;;;;;;;;;;;;;;;20.53;57.73;101429.03;7407264;19;1299;-66
2022/05/18 13:14:37;;;;;;;;;;;;;;;20.52;56.61;101428.19;7408090;19;1345;-65
2022/05/18 13:17:29;;;;;;;;;;;;;;;20.52;55.98;101419.28;7407083;19;1541;-66
2022/05/18 13:20:00;;;;;;;;;;;;;;;20.54;56.74;101420.00;7404971;19;1841;-73
2022/05/18 13:22:47;;;;;;;;;;;;;;;20.51;56.84;101406.81;7407281;19;1537;-64